createdAt,value
2022-11-18T00:00:14.734Z,9.60
2022-11-18T00:02:42.877Z,9.60
2022-11-18T00:05:10.956Z,9.60
2022-11-18T00:07:40.440Z,9.70
2022-11-18T00:10:08.695Z,9.60
2022-11-18T00:12:54.322Z,9.70
2022-11-18T00:15:25.170Z,9.70
2022-11-18T00:17:55.667Z,9.70
2022-11-18T00:20:23.711Z,9.70
2022-11-18T00:22:53.141Z,9.70
2022-11-18T00:25:21.174Z,9.70
2022-11-18T00:27:49.213Z,9.80
2022-11-18T00:30:17.739Z,9.80
2022-11-18T00:32:45.910Z,9.80
2022-11-18T00:35:13.997Z,9.80
2022-11-18T00:37:42.006Z,9.80
2022-11-18T00:40:12.791Z,9.80
2022-11-18T00:42:51.598Z,9.80
2022-11-18T00:45:19.808Z,9.80
2022-11-18T00:47:47.858Z,9.90
2022-11-18T00:50:16.302Z,9.90
2022-11-18T00:52:44.315Z,9.90
2022-11-18T00:55:13.718Z,9.90
2022-11-18T00:57:41.726Z,9.90
2022-11-18T01:00:11.395Z,9.80
2022-11-18T01:02:39.472Z,9.80
2022-11-18T01:05:07.998Z,9.80
2022-11-18T01:07:36.101Z,9.80
2022-11-18T01:10:04.375Z,9.80
2022-11-18T01:12:54.284Z,9.80
2022-11-18T01:15:22.663Z,9.80
2022-11-18T01:17:50.728Z,9.80
2022-11-18T01:20:18.842Z,9.80
2022-11-18T01:22:46.887Z,9.80
2022-11-18T01:25:14.915Z,9.90
2022-11-18T01:27:44.302Z,9.80
2022-11-18T01:30:13.425Z,9.80
2022-11-18T01:32:41.479Z,9.80
2022-11-18T01:35:10.280Z,9.80
2022-11-18T01:37:38.430Z,9.70
2022-11-18T01:40:09.030Z,9.70
2022-11-18T01:42:37.227Z,9.60
2022-11-18T01:45:16.641Z,9.60
2022-11-18T01:47:48.849Z,9.60
2022-11-18T01:50:19.538Z,9.70
2022-11-18T01:52:51.638Z,9.70
2022-11-18T01:55:25.579Z,9.70
2022-11-18T01:57:59.518Z,9.70
2022-11-18T02:00:29.017Z,9.70
2022-11-18T02:02:58.326Z,9.70
2022-11-18T02:05:27.620Z,9.70
2022-11-18T02:07:56.269Z,9.70
2022-11-18T02:10:26.109Z,9.70
2022-11-18T02:12:55.508Z,9.80
2022-11-18T02:15:34.565Z,9.70
2022-11-18T02:18:08.683Z,9.70
2022-11-18T02:20:40.626Z,9.70
2022-11-18T02:23:58.388Z,9.70
2022-11-18T02:26:52.164Z,9.70
2022-11-18T02:29:26.232Z,9.70
2022-11-18T02:32:00.280Z,9.70
2022-11-18T02:34:40.173Z,9.70
2022-11-18T02:37:15.586Z,9.70
2022-11-18T02:39:49.166Z,9.80
2022-11-18T02:42:18.238Z,9.80
2022-11-18T02:44:52.759Z,9.80
2022-11-18T02:47:23.017Z,9.80
2022-11-18T02:49:54.998Z,9.80
2022-11-18T02:52:25.166Z,9.90
2022-11-18T02:54:55.666Z,9.90
2022-11-18T02:57:25.074Z,9.90
2022-11-18T02:59:54.468Z,9.70
2022-11-18T03:02:24.992Z,9.70
2022-11-18T03:04:57.402Z,9.70
2022-11-18T03:07:31.197Z,9.70
2022-11-18T03:10:01.567Z,9.70
2022-11-18T03:12:40.431Z,9.60
2022-11-18T03:15:17.063Z,9.60
2022-11-18T03:17:56.022Z,9.50
2022-11-18T03:20:28.682Z,9.50
2022-11-18T03:23:02.068Z,9.50
2022-11-18T03:25:35.771Z,9.50
2022-11-18T03:28:10.797Z,9.40
2022-11-18T03:30:47.122Z,9.40
2022-11-18T03:33:23.344Z,9.30
2022-11-18T03:35:54.390Z,9.30
2022-11-18T03:38:28.214Z,9.30
2022-11-18T03:41:01.919Z,9.30
2022-11-18T03:43:35.756Z,9.30
2022-11-18T03:46:09.967Z,9.30
2022-11-18T03:48:43.205Z,9.30
2022-11-18T03:51:15.700Z,9.30
2022-11-18T03:53:48.507Z,9.30
2022-11-18T03:56:19.339Z,9.30
2022-11-18T03:58:54.495Z,9.30
2022-11-18T04:01:32.888Z,9.30
2022-11-18T04:04:01.385Z,9.30
2022-11-18T04:06:37.094Z,9.30
2022-11-18T04:09:11.069Z,9.30
2022-11-18T04:12:03.588Z,9.30
2022-11-18T04:14:33.430Z,9.30
2022-11-18T04:17:08.752Z,9.20
2022-11-18T04:19:36.915Z,9.30
2022-11-18T04:22:05.359Z,9.30
2022-11-18T04:24:33.375Z,9.30
2022-11-18T04:27:02.641Z,9.30
2022-11-18T04:29:30.990Z,9.20
2022-11-18T04:31:59.054Z,9.20
2022-11-18T04:34:28.798Z,9.20
2022-11-18T04:36:56.874Z,9.30
2022-11-18T04:39:24.950Z,9.30
2022-11-18T04:41:59.251Z,9.30
2022-11-18T04:44:28.577Z,9.30
2022-11-18T04:46:58.030Z,9.30
2022-11-18T04:49:28.202Z,9.40
2022-11-18T04:51:57.365Z,9.30
2022-11-18T04:54:26.488Z,9.20
2022-11-18T04:56:55.583Z,9.20
2022-11-18T04:59:25.332Z,9.20
2022-11-18T05:01:54.328Z,9.30
2022-11-18T05:04:26.493Z,9.30
2022-11-18T05:06:55.946Z,9.40
2022-11-18T05:09:28.652Z,9.40
2022-11-18T05:12:16.862Z,9.40
2022-11-18T05:14:49.649Z,9.30
2022-11-18T05:17:19.155Z,9.30
2022-11-18T05:19:47.146Z,9.30
2022-11-18T05:22:17.608Z,9.40
2022-11-18T05:24:45.631Z,9.40
2022-11-18T05:27:14.519Z,9.40
2022-11-18T05:29:42.615Z,9.40
2022-11-18T05:32:10.868Z,9.40
2022-11-18T05:34:38.944Z,9.30
2022-11-18T05:37:06.994Z,9.30
2022-11-18T05:39:36.389Z,9.30
2022-11-18T05:42:22.039Z,9.30
2022-11-18T05:44:56.178Z,9.30
2022-11-18T05:47:26.153Z,9.40
2022-11-18T05:49:54.175Z,9.40
2022-11-18T05:52:22.291Z,9.40
2022-11-18T05:54:52.530Z,9.40
2022-11-18T05:57:20.559Z,9.40
2022-11-18T05:59:48.568Z,9.40
2022-11-18T06:02:19.927Z,9.40
2022-11-18T06:04:51.880Z,9.40
2022-11-18T06:07:23.108Z,9.40
2022-11-18T06:09:59.786Z,9.40
2022-11-18T06:12:37.546Z,9.40
2022-11-18T06:15:10.838Z,9.50
2022-11-18T06:17:52.566Z,9.50
2022-11-18T06:20:21.890Z,9.40
2022-11-18T06:22:52.265Z,9.40
2022-11-18T06:25:21.981Z,9.40
2022-11-18T06:27:52.885Z,9.40
2022-11-18T06:30:21.047Z,9.40
2022-11-18T06:32:49.106Z,9.40
2022-11-18T06:35:17.234Z,9.40
2022-11-18T06:37:45.300Z,9.40
2022-11-18T06:40:14.239Z,9.50
2022-11-18T06:43:01.768Z,9.40
2022-11-18T06:45:29.887Z,9.40
2022-11-18T06:47:58.463Z,9.30
2022-11-18T06:50:26.468Z,9.30
2022-11-18T06:52:54.607Z,9.20
2022-11-18T06:55:22.633Z,9.30
2022-11-18T06:57:52.047Z,9.30
2022-11-18T07:00:20.612Z,9.30
2022-11-18T07:02:48.692Z,9.20
2022-11-18T07:05:16.824Z,9.20
2022-11-18T07:07:44.962Z,9.20
2022-11-18T07:10:13.033Z,9.20
2022-11-18T07:12:41.052Z,9.10
2022-11-18T07:15:11.520Z,9.10
2022-11-18T07:17:39.526Z,9.10
2022-11-18T07:20:08.728Z,9.10
2022-11-18T07:22:36.725Z,9.10
2022-11-18T07:25:04.919Z,9.10
2022-11-18T07:27:32.940Z,9.20
2022-11-18T07:30:00.958Z,9.20
2022-11-18T07:32:30.313Z,9.20
2022-11-18T07:34:58.346Z,9.20
2022-11-18T07:37:26.317Z,9.20
2022-11-18T07:39:54.340Z,9.20
2022-11-18T07:42:22.338Z,9.30
2022-11-18T07:44:50.385Z,9.30
2022-11-18T07:47:18.383Z,9.30
2022-11-18T07:49:47.791Z,9.30
2022-11-18T07:52:15.774Z,9.30
2022-11-18T07:54:43.837Z,9.30
2022-11-18T07:57:11.823Z,9.40
2022-11-18T07:59:39.855Z,9.40
2022-11-18T08:02:07.870Z,9.40
2022-11-18T08:04:38.606Z,9.40
2022-11-18T08:07:10.598Z,9.40
2022-11-18T08:09:38.670Z,9.50
2022-11-18T08:12:07.362Z,9.50
2022-11-18T08:14:35.446Z,9.40
2022-11-18T08:17:03.441Z,9.50
2022-11-18T08:19:31.533Z,9.60
2022-11-18T08:21:59.546Z,9.60
2022-11-18T08:24:29.435Z,9.70
2022-11-18T08:26:57.441Z,9.70
2022-11-18T08:29:25.979Z,9.70
2022-11-18T08:31:54.681Z,9.70
2022-11-18T08:34:22.718Z,9.70
2022-11-18T08:36:50.709Z,9.70
2022-11-18T08:39:18.818Z,9.60
2022-11-18T08:41:48.977Z,9.60
2022-11-18T08:44:18.518Z,9.60
2022-11-18T08:46:46.923Z,9.60
2022-11-18T08:49:15.045Z,9.60
2022-11-18T08:51:43.168Z,9.60
2022-11-18T08:54:11.278Z,9.70
2022-11-18T08:56:40.160Z,9.80
2022-11-18T08:59:09.615Z,9.80
2022-11-18T09:01:38.297Z,9.80
2022-11-18T09:04:06.433Z,9.80
2022-11-18T09:06:34.992Z,9.80
2022-11-18T09:09:18.741Z,9.80
2022-11-18T09:11:46.912Z,9.80
2022-11-18T09:17:04.722Z,9.90
2022-11-18T09:19:46.642Z,9.80
2022-11-18T09:22:15.086Z,9.80
2022-11-18T09:24:43.580Z,10.00
2022-11-18T09:27:16.743Z,10.00
2022-11-18T09:29:46.904Z,9.90
2022-11-18T09:32:15.013Z,10.00
2022-11-18T09:34:43.017Z,10.10
2022-11-18T09:37:11.050Z,10.30
2022-11-18T09:39:39.059Z,10.50
2022-11-18T09:42:30.228Z,10.50
2022-11-18T09:45:14.676Z,10.60
2022-11-18T09:47:45.121Z,10.60
2022-11-18T09:50:47.327Z,10.60
2022-11-18T09:53:16.336Z,10.50
2022-11-18T09:55:44.507Z,10.70
2022-11-18T09:58:19.310Z,10.70
2022-11-18T10:00:48.841Z,10.60
2022-11-18T10:03:26.991Z,10.60
2022-11-18T10:06:02.869Z,10.60
2022-11-18T10:08:36.946Z,10.70
2022-11-18T10:11:12.621Z,10.70
2022-11-18T10:13:52.500Z,10.70
2022-11-18T10:16:33.346Z,10.80
2022-11-18T10:19:10.611Z,10.70
2022-11-18T10:21:49.497Z,10.80
2022-11-18T10:24:21.277Z,10.80
2022-11-18T10:26:55.296Z,10.80
2022-11-18T10:29:23.776Z,10.70
2022-11-18T10:32:04.124Z,10.70
2022-11-18T10:34:33.617Z,10.90
2022-11-18T10:37:04.458Z,10.90
2022-11-18T10:39:33.147Z,10.90
2022-11-18T10:42:06.084Z,10.90
2022-11-18T10:44:37.232Z,10.90
2022-11-18T10:47:27.909Z,10.90
2022-11-18T10:49:58.022Z,10.90
2022-11-18T10:52:26.314Z,10.90
2022-11-18T10:55:11.076Z,10.90
2022-11-18T10:57:43.477Z,10.90
2022-11-18T11:00:45.414Z,10.90
2022-11-18T11:03:36.579Z,10.80
2022-11-18T11:06:33.383Z,10.80
2022-11-18T11:09:04.747Z,10.80
2022-11-18T11:11:35.179Z,10.90
2022-11-18T11:14:15.330Z,10.80
2022-11-18T11:16:49.914Z,10.80
2022-11-18T11:19:24.450Z,10.80
2022-11-18T11:21:53.213Z,10.70
2022-11-18T11:24:25.137Z,10.70
2022-11-18T11:30:05.212Z,11.00
2022-11-18T11:32:40.843Z,11.00
2022-11-18T11:35:17.048Z,11.10
2022-11-18T11:37:53.734Z,11.20
2022-11-18T11:40:29.369Z,11.20
2022-11-18T11:43:13.766Z,11.30
2022-11-18T11:46:02.154Z,11.30
2022-11-18T11:48:45.895Z,11.40
2022-11-18T11:51:21.187Z,11.30
2022-11-18T11:54:16.970Z,11.40
2022-11-18T11:56:50.209Z,11.40
2022-11-18T11:59:27.153Z,11.50
2022-11-18T12:02:21.709Z,11.50
2022-11-18T12:04:53.256Z,11.60
2022-11-18T12:07:26.994Z,11.60
2022-11-18T12:10:21.674Z,11.70
2022-11-18T12:12:55.554Z,11.70
2022-11-18T12:15:40.424Z,11.70
2022-11-18T12:18:16.760Z,11.80
2022-11-18T12:20:47.269Z,11.70
2022-11-18T12:23:20.346Z,11.70
2022-11-18T12:26:00.032Z,11.80
2022-11-18T12:28:31.323Z,11.70
2022-11-18T12:31:36.812Z,11.80
2022-11-18T12:34:19.645Z,11.70
2022-11-18T12:36:47.745Z,11.70
2022-11-18T12:39:58.597Z,11.70
2022-11-18T12:43:09.584Z,11.80
2022-11-18T12:45:59.107Z,11.90
2022-11-18T12:48:47.806Z,11.90
2022-11-18T12:51:46.317Z,12.00
2022-11-18T12:54:32.832Z,12.00
2022-11-18T12:57:03.600Z,12.00
2022-11-18T12:59:35.605Z,12.00
2022-11-18T13:02:19.214Z,12.00
2022-11-18T13:04:52.136Z,11.90
2022-11-18T13:07:46.914Z,11.90
2022-11-18T13:10:24.296Z,11.80
2022-11-18T13:12:53.384Z,11.70
2022-11-18T13:15:40.537Z,11.70
2022-11-18T13:18:15.179Z,11.70
2022-11-18T13:20:43.976Z,11.60
2022-11-18T13:23:48.119Z,11.60
2022-11-18T13:26:20.903Z,11.50
2022-11-18T13:29:04.570Z,11.40
2022-11-18T13:31:42.606Z,11.30
2022-11-18T13:34:18.981Z,11.20
2022-11-18T13:36:49.298Z,11.30
2022-11-18T13:39:23.441Z,11.20
2022-11-18T13:42:04.903Z,11.10
2022-11-18T13:44:34.864Z,11.10
2022-11-18T13:47:14.999Z,11.10
2022-11-18T13:49:50.580Z,11.10
2022-11-18T13:52:24.789Z,11.20
2022-11-18T13:54:54.658Z,11.10
2022-11-18T13:57:25.578Z,11.00
2022-11-18T13:59:55.066Z,11.00
2022-11-18T14:02:24.874Z,11.00
2022-11-18T14:04:56.986Z,11.00
2022-11-18T14:07:28.137Z,10.90
2022-11-18T14:09:58.574Z,10.90
2022-11-18T14:12:29.902Z,10.90
2022-11-18T14:15:17.710Z,10.90
2022-11-18T14:17:56.437Z,10.90
2022-11-18T14:20:25.252Z,10.80
2022-11-18T14:22:55.754Z,10.80
2022-11-18T14:25:28.170Z,10.80
2022-11-18T14:27:57.930Z,10.80
2022-11-18T14:30:32.099Z,10.70
2022-11-18T14:33:22.052Z,10.70
2022-11-18T14:35:52.977Z,10.70
2022-11-18T14:38:40.597Z,10.70
2022-11-18T14:41:13.650Z,10.60
2022-11-18T14:43:42.859Z,10.60
2022-11-18T14:46:16.701Z,10.60
2022-11-18T14:48:46.484Z,10.60
2022-11-18T14:51:15.326Z,10.50
2022-11-18T14:53:44.098Z,10.50
2022-11-18T14:56:16.120Z,10.50
2022-11-18T14:58:44.133Z,10.40
2022-11-18T15:01:13.556Z,10.40
2022-11-18T15:03:41.797Z,10.40
2022-11-18T15:06:15.022Z,10.40
2022-11-18T15:08:44.009Z,10.40
2022-11-18T15:11:12.325Z,10.30
2022-11-18T15:13:40.853Z,10.30
2022-11-18T15:16:15.534Z,10.20
2022-11-18T15:18:44.321Z,10.20
2022-11-18T15:21:13.785Z,10.20
2022-11-18T15:23:42.117Z,10.20
2022-11-18T15:26:19.910Z,10.20
2022-11-18T15:28:48.395Z,10.20
2022-11-18T15:31:16.633Z,10.20
2022-11-18T15:33:45.470Z,10.10
2022-11-18T15:36:16.997Z,10.10
2022-11-18T15:38:45.453Z,10.10
2022-11-18T15:41:18.193Z,10.00
2022-11-18T15:43:46.310Z,10.00
2022-11-18T15:46:14.438Z,10.00
2022-11-18T15:48:42.615Z,10.00
2022-11-18T15:51:12.272Z,10.00
2022-11-18T15:53:42.072Z,10.00
2022-11-18T15:56:17.832Z,9.90
2022-11-18T15:58:46.142Z,9.80
2022-11-18T16:01:14.236Z,9.80
2022-11-18T16:03:42.276Z,9.70
2022-11-18T16:06:10.321Z,9.70
2022-11-18T16:08:38.321Z,9.70
2022-11-18T16:11:25.385Z,9.60
2022-11-18T16:13:53.374Z,9.60
2022-11-18T16:16:21.792Z,9.50
2022-11-18T16:18:49.808Z,9.60
2022-11-18T16:21:17.951Z,9.60
2022-11-18T16:23:45.971Z,9.60
2022-11-18T16:26:17.328Z,9.60
2022-11-18T16:28:45.700Z,9.60
2022-11-18T16:31:31.292Z,9.50
2022-11-18T16:33:59.293Z,9.50
2022-11-18T16:36:28.097Z,9.50
2022-11-18T16:38:56.182Z,9.50
2022-11-18T16:41:34.242Z,9.60
2022-11-18T16:44:04.167Z,9.60
2022-11-18T16:46:33.582Z,9.60
2022-11-18T16:49:01.973Z,9.60
2022-11-18T16:51:31.378Z,9.60
2022-11-18T16:54:01.676Z,9.50
2022-11-18T16:56:32.531Z,9.40
2022-11-18T16:59:02.695Z,9.40
2022-11-18T17:01:30.915Z,9.40
2022-11-18T17:04:01.287Z,9.30
2022-11-18T17:06:31.146Z,9.30
2022-11-18T17:08:59.509Z,9.30
2022-11-18T17:11:27.861Z,9.10
2022-11-18T17:13:58.439Z,9.00
2022-11-18T17:16:27.410Z,8.90
2022-11-18T17:18:56.617Z,8.80
2022-11-18T17:21:25.407Z,8.90
2022-11-18T17:23:53.451Z,8.70
2022-11-18T17:26:23.177Z,8.50
2022-11-18T17:28:51.357Z,8.60
2022-11-18T17:31:21.809Z,8.50
2022-11-18T17:33:50.683Z,8.40
2022-11-18T17:36:20.288Z,8.40
2022-11-18T17:38:50.124Z,8.30
2022-11-18T17:41:38.239Z,8.20
2022-11-18T17:44:08.741Z,8.10
2022-11-18T17:46:38.729Z,8.00
2022-11-18T17:49:08.465Z,7.90
2022-11-18T17:51:36.474Z,7.90
2022-11-18T17:54:04.606Z,7.80
2022-11-18T17:56:32.669Z,7.80
2022-11-18T17:59:00.953Z,7.70
2022-11-18T18:01:29.043Z,7.60
2022-11-18T18:03:58.837Z,7.60
2022-11-18T18:06:26.957Z,7.50
2022-11-18T18:08:57.368Z,7.50
2022-11-18T18:11:26.205Z,7.40
2022-11-18T18:14:11.829Z,7.10
2022-11-18T18:16:42.133Z,7.00
2022-11-18T18:19:13.426Z,6.80
2022-11-18T18:21:41.646Z,6.90
2022-11-18T18:24:10.457Z,6.90
2022-11-18T18:26:39.363Z,6.90
2022-11-18T18:29:07.418Z,6.80
2022-11-18T18:31:37.101Z,6.70
2022-11-18T18:34:06.096Z,6.70
2022-11-18T18:36:35.509Z,6.60
2022-11-18T18:39:03.586Z,6.60
2022-11-18T18:41:32.571Z,6.50
2022-11-18T18:44:00.821Z,6.50
2022-11-18T18:46:34.738Z,6.50
2022-11-18T18:49:05.093Z,6.40
2022-11-18T18:51:36.487Z,6.30
2022-11-18T18:54:05.327Z,6.30
2022-11-18T18:56:34.291Z,6.30
2022-11-18T18:59:02.875Z,6.30
2022-11-18T19:01:31.239Z,6.20
2022-11-18T19:04:01.094Z,6.20
2022-11-18T19:09:20.244Z,6.00
2022-11-18T19:12:06.236Z,5.90
2022-11-18T19:14:35.276Z,5.90
2022-11-18T19:17:10.083Z,5.80
2022-11-18T19:19:57.346Z,5.80
2022-11-18T19:22:25.699Z,5.70
2022-11-18T19:24:55.599Z,5.70
2022-11-18T19:27:24.416Z,5.60
2022-11-18T19:29:52.578Z,5.60
2022-11-18T19:32:21.083Z,5.40
2022-11-18T19:34:49.317Z,5.40
2022-11-18T19:37:17.389Z,5.30
2022-11-18T19:39:45.520Z,5.20
2022-11-18T19:42:14.971Z,5.20
2022-11-18T19:44:43.247Z,5.20
2022-11-18T19:47:11.377Z,5.10
2022-11-18T19:49:39.480Z,4.90
2022-11-18T19:52:07.572Z,4.90
2022-11-18T19:54:35.612Z,4.80
2022-11-18T19:57:05.001Z,4.80
2022-11-18T19:59:34.492Z,4.70
2022-11-18T20:02:02.769Z,4.70
2022-11-18T20:04:31.090Z,4.60
2022-11-18T20:06:59.441Z,4.70
2022-11-18T20:09:27.526Z,4.60
2022-11-18T20:11:55.967Z,4.50
2022-11-18T20:14:24.028Z,4.50
2022-11-18T20:16:53.401Z,4.50
2022-11-18T20:19:21.931Z,4.40
2022-11-18T20:21:50.312Z,4.30
2022-11-18T20:24:20.319Z,4.30
2022-11-18T20:26:48.839Z,4.30
2022-11-18T20:29:17.441Z,4.20
2022-11-18T20:31:45.919Z,4.20
2022-11-18T20:34:15.770Z,4.10
2022-11-18T20:36:44.529Z,4.00
2022-11-18T20:39:15.505Z,3.80
2022-11-18T20:41:43.653Z,3.80
2022-11-18T20:44:11.680Z,3.80
2022-11-18T20:46:39.960Z,3.80
2022-11-18T20:49:08.012Z,3.80
2022-11-18T20:51:37.377Z,3.90
2022-11-18T20:54:09.220Z,3.80
2022-11-18T20:56:37.246Z,3.80
2022-11-18T20:59:05.582Z,3.80
2022-11-18T21:01:34.032Z,3.70
2022-11-18T21:04:04.404Z,3.70
2022-11-18T21:06:33.698Z,3.70
2022-11-18T21:09:04.809Z,3.60
2022-11-18T21:11:35.675Z,3.60
2022-11-18T21:14:25.285Z,3.70
2022-11-18T21:16:55.214Z,3.50
2022-11-18T21:19:23.740Z,3.50
2022-11-18T21:21:52.699Z,3.50
2022-11-18T21:24:24.163Z,3.40
2022-11-18T21:26:54.659Z,3.30
2022-11-18T21:29:24.037Z,3.30
2022-11-18T21:31:52.593Z,3.30
2022-11-18T21:34:21.786Z,3.30
2022-11-18T21:36:54.318Z,3.40
2022-11-18T21:39:25.173Z,3.30
2022-11-18T21:41:56.631Z,3.30
2022-11-18T21:44:27.763Z,3.30
2022-11-18T21:46:56.323Z,3.30
2022-11-18T21:49:24.442Z,3.30
2022-11-18T21:51:52.440Z,3.30
2022-11-18T21:54:20.468Z,3.30
2022-11-18T21:56:49.860Z,3.30
2022-11-18T21:59:18.186Z,3.30
2022-11-18T22:01:46.493Z,3.20
2022-11-18T22:04:34.512Z,3.20
2022-11-18T22:07:02.776Z,3.30
2022-11-18T22:09:36.102Z,3.30
2022-11-18T22:12:07.716Z,3.30
2022-11-18T22:14:36.022Z,3.20
2022-11-18T22:17:04.435Z,3.10
2022-11-18T22:19:32.475Z,3.20
2022-11-18T22:22:00.477Z,3.10
2022-11-18T22:24:28.698Z,3.00
2022-11-18T22:26:56.696Z,3.00
2022-11-18T22:29:26.291Z,3.00
2022-11-18T22:31:54.546Z,3.00
2022-11-18T22:34:22.541Z,3.00
2022-11-18T22:36:50.690Z,3.00
2022-11-18T22:39:19.188Z,3.00
2022-11-18T22:42:04.942Z,3.20
2022-11-18T22:44:34.452Z,3.00
2022-11-18T22:47:02.485Z,3.00
2022-11-18T22:49:30.485Z,3.00
2022-11-18T22:51:58.516Z,2.90
2022-11-18T22:54:41.927Z,2.80
2022-11-18T22:57:10.284Z,2.90
2022-11-18T22:59:39.619Z,2.80
2022-11-18T23:02:07.670Z,2.80
2022-11-18T23:04:35.924Z,2.90
2022-11-18T23:07:04.110Z,2.90
2022-11-18T23:09:32.174Z,2.90
2022-11-18T23:12:17.806Z,2.80
2022-11-18T23:14:47.384Z,2.80
2022-11-18T23:17:16.084Z,2.70
2022-11-18T23:19:44.247Z,2.80
2022-11-18T23:22:12.421Z,2.70
2022-11-18T23:24:40.459Z,2.80
2022-11-18T23:27:08.932Z,2.90
2022-11-18T23:29:37.017Z,2.90
2022-11-18T23:32:06.646Z,2.90
2022-11-18T23:34:34.682Z,2.80
2022-11-18T23:37:02.779Z,2.80
2022-11-18T23:39:30.784Z,2.80
2022-11-18T23:41:59.058Z,2.80
2022-11-18T23:44:40.964Z,2.80
2022-11-18T23:47:10.452Z,2.70
2022-11-18T23:49:38.450Z,2.60
2022-11-18T23:52:06.926Z,2.60
2022-11-18T23:54:35.059Z,2.60
2022-11-18T23:57:04.534Z,2.50
2022-11-18T23:59:33.134Z,2.60
